Elwood, Illinois
Current Conditions -  °F | °C
As of 1:55 AM on Monday 24 Nov 2014 (Local Time) from KJOT Reporting Station
Moderate Rain Moderate Rain  
Wind Chill: 46°   Ceiling: 300
Heat Index: 48°   Visibility: 3mi
Dew Point: 48°   Wind: 6mph
Humidity: 98%   Direction: 240°WSW
Pressure: 29.1"   Gusts: NA
Location:  41.4°N, 88.11°W
Report Text: KJOT 240755Z AUTO 24005KT 3SM RA OVC003 09/09 A2910 RMK AO2 P0002 T00900087
Loading
Personal Weather Stations






























Interactive Weather Map New forecast layout! Learn more

10-Day Weather Forecast

Advertisements
Track Severe Weather on mobile